Time;durP1;ratioP1;P1;durP2;ratioP2;P2;SDS_P1;SDS_P2;PMS_P1;PMS_P2;Temp;Humidity;BMP_temperature;BMP_pressure;BME280_temperature;BME280_humidity;BME280_pressure;Samples;Min_cycle;Max_cycle;Signal;HPM_P1;HPM_P2
2021/03/31 00:01:35;;;;;;;18.55;9.10;;;;;;;17.77;24.68;100786.13;5074081;28;20052;-85
2021/03/31 00:04:02;;;;;;;18.45;9.43;;;;;;;17.77;24.57;100779.94;5073986;28;20390;-85
2021/03/31 00:06:28;;;;;;;20.25;9.60;;;;;;;17.75;24.69;100777.38;5056485;28;20417;-85
2021/03/31 00:08:54;;;;;;;15.10;8.20;;;;;;;17.74;24.62;100774.84;5073910;28;20084;-85
2021/03/31 00:11:21;;;;;;;13.38;7.40;;;;;;;17.72;24.59;100774.97;5056067;28;20056;-85
2021/03/31 00:13:47;;;;;;;10.98;6.97;;;;;;;17.70;24.31;100774.22;5073754;28;20052;-85
2021/03/31 00:16:13;;;;;;;16.92;8.27;;;;;;;17.68;24.18;100776.97;5074072;28;20055;-86
2021/03/31 00:18:39;;;;;;;18.17;7.82;;;;;;;17.66;24.28;100762.94;5073731;28;20052;-85
2021/03/31 00:21:06;;;;;;;16.10;7.25;;;;;;;17.65;23.69;100768.38;5073840;28;20045;-85
2021/03/31 00:23:32;;;;;;;12.77;7.10;;;;;;;17.62;24.22;100761.44;5056075;28;20049;-85
2021/03/31 00:25:59;;;;;;;12.95;6.68;;;;;;;17.60;24.07;100759.84;5073332;28;20053;-85
2021/03/31 00:28:26;;;;;;;15.10;7.47;;;;;;;17.56;23.85;100752.06;5056014;28;20044;-85
2021/03/31 00:30:56;;;;;;;14.13;6.93;;;;;;;17.54;24.05;100743.34;5056325;28;20497;-86
2021/03/31 00:33:22;;;;;;;16.55;7.43;;;;;;;17.54;23.89;100742.50;5073708;28;20055;-86
2021/03/31 00:35:48;;;;;;;16.13;7.25;;;;;;;17.53;24.00;100743.47;5073502;28;20059;-85
2021/03/31 00:38:15;;;;;;;14.80;7.35;;;;;;;17.52;24.16;100737.28;5073459;28;20060;-86
2021/03/31 00:40:45;;;;;;;13.93;6.55;;;;;;;17.50;23.96;100744.53;5073379;28;20048;-86
2021/03/31 00:43:11;;;;;;;14.07;7.22;;;;;;;17.51;24.03;100737.38;5055801;28;20052;-85
2021/03/31 00:45:38;;;;;;;15.93;7.18;;;;;;;17.50;24.07;100731.22;5055502;28;20063;-85
2021/03/31 00:48:08;;;;;;;12.82;7.18;;;;;;;17.48;23.74;100733.13;5055895;28;20435;-86
2021/03/31 00:50:35;;;;;;;16.20;7.00;;;;;;;17.47;23.99;100725.25;5073466;28;20497;-86
2021/03/31 00:53:02;;;;;;;15.02;6.88;;;;;;;17.44;24.08;100724.53;5073403;28;20436;-86
2021/03/31 00:55:30;;;;;;;14.38;6.63;;;;;;;17.41;23.70;100721.22;5072546;28;20121;-86
2021/03/31 00:57:58;;;;;;;16.40;6.63;;;;;;;17.38;23.97;100722.28;5055157;28;20511;-85
2021/03/31 01:00:25;;;;;;;12.02;6.50;;;;;;;17.38;23.88;100719.63;5073435;28;20092;-85
2021/03/31 01:02:51;;;;;;;12.70;6.68;;;;;;;17.37;24.17;100715.25;5073347;28;20045;-86
2021/03/31 01:05:24;;;;;;;12.20;6.35;;;;;;;17.34;24.11;100714.63;5072997;28;20056;-85
2021/03/31 01:07:51;;;;;;;11.02;6.22;;;;;;;17.34;24.25;100710.16;5055480;28;20051;-86
2021/03/31 01:10:21;;;;;;;13.27;6.07;;;;;;;17.30;23.72;100706.88;5073145;28;20059;-86
2021/03/31 01:12:50;;;;;;;12.70;6.28;;;;;;;17.28;23.95;100698.16;5073029;28;20060;-86
2021/03/31 01:15:18;;;;;;;8.30;5.65;;;;;;;17.27;24.11;100700.91;5055060;28;20056;-85
2021/03/31 01:17:57;;;;;;;12.63;6.80;;;;;;;17.22;24.98;100690.59;5055280;28;20390;-86
2021/03/31 01:20:40;;;;;;;11.98;5.38;;;;;;;17.18;24.33;100691.75;5055498;28;20057;-86
2021/03/31 01:23:27;;;;;;;11.45;5.97;;;;;;;17.21;24.05;100688.88;5073330;28;20417;-86
2021/03/31 01:26:33;;;;;;;14.05;6.07;;;;;;;17.14;23.71;100687.59;5055291;28;20075;-86
2021/03/31 01:29:10;;;;;;;11.40;5.63;;;;;;;17.12;23.95;100679.72;5072999;28;20048;-87
2021/03/31 01:31:40;;;;;;;10.43;5.53;;;;;;;17.12;24.19;100678.91;5055507;28;20048;-86
2021/03/31 01:34:28;;;;;;;13.30;6.30;;;;;;;17.07;23.81;100676.53;5055167;28;20048;-86
2021/03/31 01:36:54;;;;;;;9.45;5.38;;;;;;;17.05;23.95;100674.00;5055282;28;20071;-86
2021/03/31 01:39:23;;;;;;;12.05;6.15;;;;;;;17.01;23.87;100668.97;5072751;28;20047;-86
2021/03/31 01:41:51;;;;;;;10.68;6.63;;;;;;;16.98;23.90;100666.53;5072796;28;20048;-86
2021/03/31 01:44:20;;;;;;;13.45;6.22;;;;;;;16.96;24.04;100668.44;5072830;28;20439;-86
2021/03/31 01:46:53;;;;;;;13.55;6.78;;;;;;;16.90;24.13;100670.56;5073032;28;20056;-86
2021/03/31 01:49:23;;;;;;;11.77;6.10;;;;;;;16.89;24.43;100662.69;5072487;28;20546;-86
2021/03/31 01:51:55;;;;;;;11.93;6.05;;;;;;;16.87;24.43;100664.59;5055267;28;20049;-87
2021/03/31 01:54:22;;;;;;;12.40;6.97;;;;;;;16.85;24.46;100658.56;5072758;28;20048;-87
2021/03/31 01:56:49;;;;;;;12.65;7.10;;;;;;;16.81;24.69;100657.91;5072633;28;20135;-87
2021/03/31 01:59:18;;;;;;;14.10;6.60;;;;;;;16.77;24.83;100659.06;5054845;28;20459;-86
2021/03/31 02:01:49;;;;;;;12.13;6.72;;;;;;;16.72;25.01;100655.88;5054961;28;20049;-86
2021/03/31 02:04:16;;;;;;;12.45;7.13;;;;;;;16.68;24.86;100658.75;5072455;28;20053;-86
2021/03/31 02:06:43;;;;;;;11.93;6.75;;;;;;;16.62;25.24;100655.66;5075558;28;20052;-86
2021/03/31 02:09:10;;;;;;;11.43;7.13;;;;;;;16.55;25.28;100647.25;5076265;28;20064;-86
2021/03/31 02:11:37;;;;;;;12.35;7.38;;;;;;;16.49;25.23;100645.03;5076123;28;20568;-86
2021/03/31 02:14:04;;;;;;;14.85;7.22;;;;;;;16.40;25.67;100647.34;5058388;28;20412;-85
2021/03/31 02:16:35;;;;;;;13.27;7.25;;;;;;;16.32;25.80;100644.34;5058539;28;20052;-86
2021/03/31 02:19:02;;;;;;;15.00;7.03;;;;;;;16.29;25.92;100633.91;5058433;28;20072;-86
2021/03/31 02:21:30;;;;;;;15.65;7.47;;;;;;;16.22;26.20;100643.28;5076224;28;20059;-86
2021/03/31 02:23:57;;;;;;;13.40;7.15;;;;;;;16.15;26.24;100646.31;5058221;28;20056;-85
2021/03/31 02:26:25;;;;;;;16.52;7.35;;;;;;;16.08;26.43;100642.38;5058283;28;20053;-86
2021/03/31 02:28:52;;;;;;;15.80;6.45;;;;;;;16.02;26.56;100642.78;5057990;28;20050;-86
2021/03/31 02:31:20;;;;;;;18.40;7.45;;;;;;;15.96;26.59;100633.41;5076067;28;20052;-86
2021/03/31 02:33:47;;;;;;;15.70;7.53;;;;;;;15.93;26.73;100636.25;5058102;28;20070;-86
2021/03/31 02:36:19;;;;;;;14.82;6.60;;;;;;;15.91;26.82;100635.47;5076128;28;20105;-86
2021/03/31 02:38:47;;;;;;;14.02;7.30;;;;;;;15.87;26.60;100634.84;5057891;28;20050;-86
2021/03/31 02:41:15;;;;;;;15.23;7.20;;;;;;;15.87;26.96;100631.31;5057869;28;20048;-86
2021/03/31 02:43:47;;;;;;;14.93;7.88;;;;;;;15.82;27.40;100626.34;5057683;28;20101;-85
2021/03/31 02:46:18;;;;;;;17.77;7.40;;;;;;;15.81;27.45;100629.09;5058028;28;20064;-86
2021/03/31 02:48:47;;;;;;;11.98;6.47;;;;;;;15.82;27.35;100622.81;5057695;28;20048;-86
2021/03/31 02:51:15;;;;;;;13.82;7.55;;;;;;;15.77;27.43;100623.97;5075717;28;20048;-86
2021/03/31 02:53:43;;;;;;;13.60;7.43;;;;;;;15.74;27.56;100621.50;5057576;28;20048;-85
2021/03/31 02:56:11;;;;;;;13.65;7.03;;;;;;;15.73;27.90;100622.47;5057220;28;20060;-85
2021/03/31 02:58:39;;;;;;;13.30;7.00;;;;;;;15.71;27.90;100612.91;5074335;28;20041;-85
2021/03/31 03:01:06;;;;;;;14.10;7.50;;;;;;;15.70;27.96;100616.50;5057570;28;20044;-85
2021/03/31 03:03:34;;;;;;;15.13;7.45;;;;;;;15.68;28.08;100615.75;5075306;28;20048;-85
2021/03/31 03:06:02;;;;;;;14.25;7.50;;;;;;;15.66;27.92;100615.84;5075256;28;20053;-85
2021/03/31 03:08:28;;;;;;;15.68;7.43;;;;;;;15.65;28.20;100608.84;5075008;28;20044;-85
2021/03/31 03:10:59;;;;;;;16.55;7.72;;;;;;;15.62;28.81;100601.06;5057591;28;20053;-85
2021/03/31 03:13:27;;;;;;;11.65;6.90;;;;;;;15.61;28.20;100602.88;5057516;28;20045;-85
2021/03/31 03:15:57;;;;;;;12.30;7.25;;;;;;;15.60;28.55;100600.31;5074738;28;20054;-85
2021/03/31 03:18:24;;;;;;;12.43;7.10;;;;;;;15.59;28.46;100588.00;5074023;28;20546;-85
2021/03/31 03:20:52;;;;;;;13.27;7.03;;;;;;;15.58;28.81;100591.59;5057537;28;20048;-85
2021/03/31 03:23:19;;;;;;;13.30;7.43;;;;;;;15.59;28.62;100590.66;5074797;28;20056;-85
2021/03/31 03:25:49;;;;;;;11.65;6.57;;;;;;;15.55;29.07;100590.00;5056828;28;20053;-85
2021/03/31 03:28:21;;;;;;;13.82;7.35;;;;;;;15.57;29.17;100587.25;5074864;28;20071;-85
2021/03/31 03:30:48;;;;;;;13.27;6.15;;;;;;;15.57;28.57;100585.44;5074928;28;20127;-86
2021/03/31 03:33:16;;;;;;;10.82;5.82;;;;;;;15.57;28.62;100587.25;5074844;28;20056;-86
2021/03/31 03:35:42;;;;;;;13.05;6.80;;;;;;;15.56;28.57;100580.25;5074305;28;20051;-86
2021/03/31 03:38:09;;;;;;;14.65;5.93;;;;;;;15.55;28.74;100587.34;5074465;28;20075;-86
2021/03/31 03:40:35;;;;;;;10.90;5.88;;;;;;;15.53;28.63;100577.78;5074680;28;20045;-86
2021/03/31 03:43:02;;;;;;;11.07;5.82;;;;;;;15.51;28.55;100585.84;5074530;28;20501;-86
2021/03/31 03:45:30;;;;;;;11.45;6.18;;;;;;;15.50;28.58;100578.84;5074318;28;20052;-86
2021/03/31 03:47:57;;;;;;;12.35;5.85;;;;;;;15.49;28.75;100580.66;5111260;22;20032;-85
2021/03/31 03:50:24;;;;;;;14.52;5.53;;;;;;;15.50;28.55;100582.34;5074314;28;20048;-84
2021/03/31 03:52:52;;;;;;;20.80;6.43;;;;;;;15.50;28.64;100579.69;5073450;28;20393;-85
2021/03/31 03:55:23;;;;;;;10.38;5.75;;;;;;;15.52;28.72;100576.09;5073077;28;20163;-85
2021/03/31 03:57:50;;;;;;;10.32;5.35;;;;;;;15.52;28.81;100573.44;5074520;28;20055;-86
2021/03/31 04:00:22;;;;;;;10.30;5.80;;;;;;;15.48;28.75;100576.28;5074496;28;20075;-85
2021/03/31 04:02:53;;;;;;;11.00;6.10;;;;;;;15.45;28.84;100571.19;5074415;28;20122;-85
2021/03/31 04:05:19;;;;;;;8.77;5.25;;;;;;;15.46;28.54;100566.72;5072985;28;20055;-84
2021/03/31 04:07:46;;;;;;;10.02;4.97;;;;;;;15.43;28.47;100573.06;5072969;28;20522;-84
2021/03/31 04:10:15;;;;;;;10.52;5.60;;;;;;;15.41;28.58;100569.69;5074030;28;20044;-85
2021/03/31 04:12:41;;;;;;;10.02;5.20;;;;;;;15.41;28.60;100569.69;5074055;28;20052;-85
2021/03/31 04:15:10;;;;;;;11.98;5.75;;;;;;;15.41;28.57;100568.81;5073698;28;20113;-84
2021/03/31 04:17:39;;;;;;;21.60;5.80;;;;;;;15.40;28.94;100567.97;5073961;28;20058;-84
2021/03/31 04:20:19;;;;;;;9.15;5.35;;;;;;;15.41;28.77;100566.16;5073876;28;20045;-84
2021/03/31 04:22:47;;;;;;;14.90;5.00;;;;;;;15.41;28.80;100558.22;5073801;28;20060;-84
2021/03/31 04:25:14;;;;;;;10.10;5.13;;;;;;;15.41;28.60;100553.75;5073544;28;20049;-84
2021/03/31 04:27:44;;;;;;;8.75;5.00;;;;;;;15.42;28.73;100549.28;5072616;28;20481;-83
2021/03/31 04:30:12;;;;;;;8.85;4.28;;;;;;;15.43;28.47;100557.16;5073775;28;20102;-84
2021/03/31 04:32:40;;;;;;;10.18;4.28;;;;;;;15.43;28.57;100551.84;5073849;28;20049;-84
2021/03/31 04:35:07;;;;;;;17.83;5.60;;;;;;;15.44;28.66;100548.25;5072429;28;20049;-84
2021/03/31 04:37:33;;;;;;;7.45;4.55;;;;;;;15.45;28.67;100554.41;5073706;28;20059;-83
2021/03/31 04:40:00;;;;;;;30.50;5.88;;;;;;;15.46;28.77;100556.09;5072398;28;20109;-84
2021/03/31 04:42:26;;;;;;;44.92;6.35;;;;;;;15.45;28.72;100551.75;5073498;28;20048;-83
2021/03/31 04:44:52;;;;;;;8.75;4.57;;;;;;;15.45;28.51;100551.75;5073427;28;20049;-84
2021/03/31 04:47:18;;;;;;;7.82;4.55;;;;;;;15.43;28.83;100546.53;5073781;28;20056;-84
2021/03/31 04:49:44;;;;;;;20.23;4.90;;;;;;;15.41;28.56;100551.13;5073362;28;20067;-84
2021/03/31 04:52:10;;;;;;;10.63;4.00;;;;;;;15.38;28.57;100546.00;5072453;28;20496;-84
2021/03/31 04:54:36;;;;;;;10.90;4.60;;;;;;;15.36;28.57;100545.22;5073197;28;20583;-84
2021/03/31 04:57:04;;;;;;;9.18;4.97;;;;;;;15.33;28.63;100543.63;5073633;28;20055;-84
2021/03/31 04:59:30;;;;;;;10.60;4.00;;;;;;;15.30;28.89;100545.63;5073458;28;20048;-84
2021/03/31 05:01:56;;;;;;;18.05;4.60;;;;;;;15.28;28.75;100543.06;5072327;28;20075;-84
2021/03/31 05:04:22;;;;;;;7.82;4.53;;;;;;;15.26;28.78;100538.81;5073086;28;20052;-83
2021/03/31 05:06:48;;;;;;;8.52;4.38;;;;;;;15.24;28.81;100542.44;5073382;28;20055;-83
2021/03/31 05:09:14;;;;;;;9.48;3.97;;;;;;;15.23;28.82;100538.09;5072953;28;20052;-84
2021/03/31 05:11:40;;;;;;;10.10;4.55;;;;;;;15.22;28.92;100541.66;5072243;28;20463;-84
2021/03/31 05:14:07;;;;;;;7.60;4.28;;;;;;;15.22;29.07;100536.34;5073140;28;20072;-84
2021/03/31 05:16:33;;;;;;;7.60;4.38;;;;;;;15.21;29.07;100534.66;5073707;28;20459;-84
2021/03/31 05:18:59;;;;;;;8.73;4.32;;;;;;;15.21;29.06;100536.44;5073241;28;20044;-84
2021/03/31 05:21:25;;;;;;;7.57;4.38;;;;;;;15.20;28.83;100530.31;5073344;28;20060;-83
2021/03/31 05:23:51;;;;;;;7.93;4.50;;;;;;;15.19;28.98;100528.63;5073050;28;20051;-84
2021/03/31 05:26:17;;;;;;;8.23;3.85;;;;;;;15.20;29.03;100530.31;5073084;28;20052;-84
2021/03/31 05:28:44;;;;;;;7.72;4.10;;;;;;;15.20;29.04;100526.81;5071744;28;20041;-84
2021/03/31 05:31:10;;;;;;;9.32;4.00;;;;;;;15.21;29.01;100531.16;5073318;28;20056;-84
2021/03/31 05:33:36;;;;;;;9.13;4.30;;;;;;;15.22;29.05;100527.56;5073108;28;20417;-83
2021/03/31 05:36:05;;;;;;;9.60;4.22;;;;;;;15.22;29.26;100531.06;5071638;28;20048;-83
2021/03/31 05:38:31;;;;;;;8.77;4.53;;;;;;;15.22;29.13;100531.06;5073013;28;20091;-84
2021/03/31 05:40:58;;;;;;;6.22;3.72;;;;;;;15.24;29.23;100523.00;5074966;28;20110;-84
2021/03/31 05:43:25;;;;;;;9.55;4.65;;;;;;;15.24;29.30;100525.66;5075719;28;20052;-84
2021/03/31 05:45:55;;;;;;;6.47;3.90;;;;;;;15.26;29.31;100526.44;5076819;28;20052;-84
2021/03/31 05:48:22;;;;;;;9.70;4.25;;;;;;;15.28;29.41;100521.84;5075623;28;20040;-84
2021/03/31 05:50:48;;;;;;;13.32;4.55;;;;;;;15.31;29.35;100520.81;5076578;28;20044;-85
2021/03/31 05:53:14;;;;;;;11.25;4.15;;;;;;;15.33;29.39;100518.91;5076515;28;20048;-84
2021/03/31 05:55:41;;;;;;;7.82;3.67;;;;;;;15.35;29.31;100520.53;5076428;28;20519;-84
2021/03/31 05:58:08;;;;;;;13.35;4.30;;;;;;;15.38;29.58;100516.81;5076537;28;20045;-84
2021/03/31 06:00:35;;;;;;;7.50;4.22;;;;;;;15.41;29.31;100521.06;5076546;28;20056;-85
2021/03/31 06:03:05;;;;;;;12.90;4.40;;;;;;;15.43;29.66;100519.16;5076452;28;20459;-84
2021/03/31 06:05:34;;;;;;;11.93;4.10;;;;;;;15.47;29.52;100516.22;5074996;28;20052;-84
2021/03/31 06:08:20;;;;;;;6.90;3.92;;;;;;;15.51;29.40;100516.84;5075473;28;20548;-85
2021/03/31 06:10:46;;;;;;;10.90;3.97;;;;;;;15.54;29.54;100521.97;5076407;28;20052;-85
2021/03/31 06:13:13;;;;;;;7.75;4.55;;;;;;;15.58;29.38;100522.59;5076517;28;20052;-84
2021/03/31 06:15:42;;;;;;;5.63;3.75;;;;;;;15.61;29.43;100530.38;5075079;28;20408;-84
2021/03/31 06:18:15;;;;;;;8.10;4.15;;;;;;;15.64;29.45;100522.22;5075040;28;20088;-84
2021/03/31 06:21:03;;;;;;;7.15;4.13;;;;;;;15.66;30.12;100514.16;5075954;28;20052;-84
2021/03/31 06:26:05;;;;;;;7.70;4.55;;;;;;;15.77;29.63;100520.44;5075883;28;20485;-84
2021/03/31 06:28:37;;;;;;;10.20;3.92;;;;;;;15.80;29.65;100523.81;5076009;28;20041;-85
2021/03/31 06:31:30;;;;;;;9.18;4.10;;;;;;;15.86;29.78;100523.44;5076493;28;20082;-84
2021/03/31 06:34:03;;;;;;;9.38;4.10;;;;;;;15.90;29.54;100525.75;5075928;28;20424;-83
2021/03/31 06:36:41;;;;;;;9.93;4.40;;;;;;;15.94;29.61;100523.81;5074795;28;20439;-84
2021/03/31 06:39:32;;;;;;;8.75;4.03;;;;;;;15.97;29.70;100520.09;5075977;28;20105;-85
2021/03/31 06:42:16;;;;;;;7.65;3.88;;;;;;;16.06;29.78;100521.25;5075927;28;20048;-85
2021/03/31 06:47:46;;;;;;;8.23;4.35;;;;;;;16.18;29.53;100515.09;5075645;28;20058;-85
2021/03/31 06:50:15;;;;;;;6.07;4.38;;;;;;;16.22;29.83;100513.94;5075615;28;20059;-84
2021/03/31 06:52:57;;;;;;;10.27;4.47;;;;;;;16.23;30.03;100512.97;5074546;28;20059;-84
2021/03/31 06:55:25;;;;;;;7.90;4.25;;;;;;;16.33;29.66;100515.03;5074159;28;20048;-85
2021/03/31 06:58:11;;;;;;;10.82;4.63;;;;;;;16.34;29.48;100514.88;5074424;28;20048;-84
2021/03/31 07:00:39;;;;;;;8.80;4.93;;;;;;;16.45;29.58;100513.31;5074508;28;20055;-85
2021/03/31 07:03:07;;;;;;;8.77;4.75;;;;;;;16.50;29.76;100513.84;5075533;28;20049;-84
2021/03/31 07:05:37;;;;;;;7.72;4.60;;;;;;;16.56;29.67;100508.06;5075044;28;20084;-85
2021/03/31 07:08:08;;;;;;;8.38;4.55;;;;;;;16.61;29.53;100508.63;5075223;28;20572;-84
2021/03/31 07:10:46;;;;;;;14.27;4.90;;;;;;;16.68;29.41;100509.88;5074258;28;20055;-84
2021/03/31 07:13:32;;;;;;;8.60;4.80;;;;;;;16.74;29.37;100505.94;5074043;28;20056;-84
2021/03/31 07:16:00;;;;;;;9.80;5.35;;;;;;;16.87;29.04;100505.06;5073876;28;20088;-83
2021/03/31 07:18:28;;;;;;;13.77;5.20;;;;;;;16.93;29.12;100512.59;5075202;28;20044;-83
2021/03/31 07:20:55;;;;;;;8.50;5.35;;;;;;;17.01;29.30;100506.75;5075198;28;20055;-84
2021/03/31 07:23:22;;;;;;;10.48;5.03;;;;;;;17.08;29.32;100501.84;5075217;28;20054;-84
2021/03/31 07:25:49;;;;;;;10.95;5.28;;;;;;;17.14;29.30;100502.25;5074927;28;20059;-84
2021/03/31 07:28:28;;;;;;;8.93;5.13;;;;;;;17.18;29.46;100495.75;5073725;28;20052;-84
2021/03/31 07:30:55;;;;;;;9.15;5.40;;;;;;;17.28;29.06;100503.91;5074935;28;20048;-84
2021/03/31 07:33:26;;;;;;;13.27;5.65;;;;;;;17.32;28.95;100500.03;5074666;28;20045;-84
2021/03/31 07:35:53;;;;;;;10.88;5.22;;;;;;;17.41;28.83;100502.97;5073358;28;20133;-84
2021/03/31 07:38:22;;;;;;;10.15;5.57;;;;;;;17.46;29.42;100511.50;5073533;28;20056;-84
2021/03/31 07:40:50;;;;;;;15.05;5.38;;;;;;;17.53;29.47;100502.06;5074791;28;20052;-84
2021/03/31 07:43:29;;;;;;;9.05;5.40;;;;;;;17.58;29.45;100499.06;5074802;28;20472;-85
2021/03/31 07:46:03;;;;;;;10.80;5.85;;;;;;;17.66;29.11;100495.84;5074591;28;20106;-86
2021/03/31 07:48:30;;;;;;;10.48;5.38;;;;;;;17.70;29.27;100494.63;5073014;28;20045;-85
2021/03/31 07:51:13;;;;;;;12.23;6.03;;;;;;;17.78;29.36;100508.22;5073169;28;20056;-85
2021/03/31 07:53:43;;;;;;;10.15;5.85;;;;;;;17.82;29.22;100507.03;5073432;28;20055;-84
2021/03/31 07:56:35;;;;;;;10.38;6.18;;;;;;;17.86;29.31;100501.47;5074284;28;20057;-84
2021/03/31 07:59:01;;;;;;;12.80;6.28;;;;;;;17.94;29.03;100501.75;5073227;28;20411;-85
2021/03/31 08:01:49;;;;;;;11.95;6.60;;;;;;;17.94;29.46;100501.75;5074302;28;20048;-85
2021/03/31 08:04:18;;;;;;;9.25;5.72;;;;;;;18.03;29.16;100501.03;5072319;28;20048;-84
2021/03/31 08:06:45;;;;;;;9.88;6.18;;;;;;;18.06;29.36;100498.13;5073129;28;20056;-86
2021/03/31 08:09:19;;;;;;;11.27;6.78;;;;;;;18.10;29.06;100507.59;5072733;28;20484;-85
2021/03/31 08:11:53;;;;;;;14.10;6.20;;;;;;;18.13;28.96;100503.03;5074902;28;20520;-85
2021/03/31 08:14:26;;;;;;;12.43;6.60;;;;;;;18.19;29.06;100511.38;5072726;28;20053;-83
2021/03/31 08:16:54;;;;;;;14.65;6.88;;;;;;;18.26;29.12;100510.91;5073159;28;20045;-83
2021/03/31 08:19:25;;;;;;;15.23;6.28;;;;;;;18.31;29.49;100498.91;5072934;28;20048;-83
2021/03/31 08:21:53;;;;;;;12.60;5.43;;;;;;;18.36;28.93;100495.91;5072981;28;20048;-83
2021/03/31 08:24:40;;;;;;;12.63;6.57;;;;;;;18.39;29.18;100500.97;5074513;28;20055;-83
2021/03/31 08:27:07;;;;;;;14.73;6.88;;;;;;;18.50;29.27;100505.47;5074397;28;20501;-83
2021/03/31 08:29:33;;;;;;;12.90;7.13;;;;;;;18.56;28.93;100507.66;5072764;28;20055;-83
2021/03/31 08:32:06;;;;;;;14.07;7.38;;;;;;;18.59;29.07;100504.75;5074775;28;20056;-83
2021/03/31 08:34:33;;;;;;;20.02;8.10;;;;;;;18.68;28.72;100507.63;5073974;28;20052;-83
2021/03/31 08:37:05;;;;;;;16.23;7.97;;;;;;;18.72;29.38;100506.41;5074429;28;20106;-83
2021/03/31 08:39:32;;;;;;;15.45;8.88;;;;;;;18.80;28.81;100505.84;5073989;28;20048;-83
2021/03/31 08:41:59;;;;;;;15.88;8.43;;;;;;;18.87;28.55;100504.34;5073788;28;20064;-83
2021/03/31 08:44:33;;;;;;;15.82;8.60;;;;;;;18.92;28.63;100510.19;5074223;28;20436;-83
2021/03/31 08:47:09;;;;;;;14.80;7.50;;;;;;;18.98;29.04;100508.81;5074486;28;20056;-83
2021/03/31 08:49:41;;;;;;;15.88;8.10;;;;;;;19.09;28.56;100499.97;5073382;28;20089;-83
2021/03/31 08:52:12;;;;;;;20.42;8.85;;;;;;;19.14;28.47;100501.31;5074769;28;20052;-83
2021/03/31 08:54:43;;;;;;;16.13;8.77;;;;;;;19.24;28.93;100493.41;5074310;28;20059;-83
2021/03/31 08:57:12;;;;;;;13.80;8.10;;;;;;;19.32;28.93;100489.25;5073955;28;20048;-83
2021/03/31 08:59:40;;;;;;;14.05;8.30;;;;;;;19.39;28.55;100488.63;5072908;28;20040;-83
2021/03/31 09:02:07;;;;;;;32.20;9.30;;;;;;;19.49;28.43;100486.03;5072237;28;20498;-83
2021/03/31 09:04:54;;;;;;;13.60;8.65;;;;;;;19.59;29.00;100479.91;5074505;28;20100;-83
2021/03/31 09:07:21;;;;;;;12.10;7.97;;;;;;;19.66;28.78;100479.28;5074597;28;20425;-84
2021/03/31 09:09:47;;;;;;;14.65;9.00;;;;;;;19.74;29.39;100478.63;5074509;28;20056;-83
2021/03/31 09:12:33;;;;;;;14.77;8.50;;;;;;;19.84;29.20;100478.69;5074028;28;20083;-83
2021/03/31 09:15:02;;;;;;;14.75;9.48;;;;;;;19.91;28.91;100474.53;5074061;28;20052;-84
2021/03/31 09:17:30;;;;;;;15.63;8.73;;;;;;;20.01;28.99;100473.75;5076920;28;20052;-83
2021/03/31 09:20:00;;;;;;;18.90;8.85;;;;;;;20.08;28.58;100469.59;5076559;28;20055;-83
2021/03/31 09:22:29;;;;;;;15.73;9.07;;;;;;;20.16;29.06;100468.94;5078020;28;20056;-83
2021/03/31 09:25:03;;;;;;;13.63;8.77;;;;;;;20.22;28.95;100470.22;5077913;28;20094;-83
2021/03/31 09:27:33;;;;;;;17.90;9.13;;;;;;;20.28;28.75;100461.66;5078672;28;20063;-83
2021/03/31 09:30:02;;;;;;;13.80;9.27;;;;;;;20.35;28.78;100468.19;5078320;28;20098;-83
2021/03/31 09:35:14;;;;;;;14.43;9.27;;;;;;;20.51;28.80;100464.13;5077536;28;20051;-83
2021/03/31 09:37:45;;;;;;;15.15;8.18;;;;;;;20.63;28.46;100457.72;5077591;28;20079;-83
2021/03/31 09:40:32;;;;;;;14.05;8.57;;;;;;;20.77;28.54;100450.28;5078912;28;20052;-83
2021/03/31 09:43:04;;;;;;;15.63;9.68;;;;;;;20.86;28.26;100462.81;5079717;28;20044;-84
2021/03/31 09:45:32;;;;;;;17.93;9.43;;;;;;;20.98;28.35;100454.72;5078582;28;20190;-83
2021/03/31 09:50:28;;;;;;;13.98;8.98;;;;;;;21.20;29.11;100459.81;5035573;28;20045;-84
2021/03/31 09:52:56;;;;;;;16.63;9.50;;;;;;;21.34;27.97;100458.56;5019572;28;20046;-84
2021/03/31 09:55:24;;;;;;;16.17;8.90;;;;;;;21.48;28.38;100459.97;5036940;28;20053;-84
2021/03/31 09:57:52;;;;;;;15.25;9.80;;;;;;;21.63;27.91;100456.84;5037022;28;20053;-84
2021/03/31 10:00:20;;;;;;;19.17;9.55;;;;;;;21.78;27.87;100453.75;5036899;28;20053;-84
2021/03/31 10:02:48;;;;;;;18.25;9.73;;;;;;;21.93;27.71;100449.63;5037091;28;20449;-84
2021/03/31 10:05:20;;;;;;;14.98;9.70;;;;;;;22.06;27.61;100448.47;5036738;28;20054;-83
2021/03/31 10:07:56;;;;;;;16.95;9.45;;;;;;;22.19;27.55;100454.34;5036908;28;20092;-84
2021/03/31 10:10:52;;;;;;;18.77;9.98;;;;;;;22.32;27.93;100451.31;5036872;28;20049;-84
2021/03/31 10:13:21;;;;;;;19.17;11.15;;;;;;;22.48;27.14;100453.41;5036926;28;20053;-84
2021/03/31 10:15:59;;;;;;;17.85;10.35;;;;;;;22.56;27.06;100447.31;5036498;28;20049;-84
2021/03/31 10:18:27;;;;;;;19.98;10.07;;;;;;;22.70;26.86;100443.28;5036776;28;20056;-84
2021/03/31 10:21:13;;;;;;;17.60;9.32;;;;;;;22.82;27.71;100438.53;5036972;28;20139;-84
2021/03/31 10:23:46;;;;;;;19.08;11.00;;;;;;;22.90;26.79;100438.63;5036862;28;20053;-84
2021/03/31 10:26:36;;;;;;;16.77;10.35;;;;;;;23.06;27.28;100434.41;5036984;28;20477;-84
2021/03/31 10:29:24;;;;;;;19.20;9.32;;;;;;;23.20;27.58;100438.41;5037076;28;20132;-84
2021/03/31 10:32:11;;;;;;;17.67;9.70;;;;;;;23.33;26.52;100437.19;5036350;28;20107;-84
2021/03/31 10:34:40;;;;;;;15.63;9.05;;;;;;;23.42;27.11;100425.53;5036314;28;20049;-84
2021/03/31 10:53:42;;;;;;;18.25;10.30;;;;;;;24.23;25.63;100409.28;5035838;28;20050;-84
2021/03/31 10:56:10;;;;;;;16.67;10.23;;;;;;;24.33;26.05;100407.28;5035807;28;20053;-85
2021/03/31 10:58:37;;;;;;;16.55;9.73;;;;;;;24.42;25.72;100408.16;5035535;28;20276;-85
2021/03/31 11:01:03;;;;;;;20.98;9.55;;;;;;;24.51;26.39;100400.13;5035743;28;20103;-85
2021/03/31 11:03:29;;;;;;;15.80;10.30;;;;;;;24.63;26.97;100392.59;5034324;28;20053;-85
2021/03/31 11:05:55;;;;;;;17.33;10.43;;;;;;;24.79;26.09;100394.47;5035137;28;20045;-85
2021/03/31 11:08:22;;;;;;;17.23;10.95;;;;;;;24.99;25.75;100395.03;5034264;28;20099;-86
2021/03/31 11:10:50;;;;;;;17.67;10.40;;;;;;;25.25;25.93;100388.63;5035457;28;20466;-85
2021/03/31 11:13:16;;;;;;;16.70;11.00;;;;;;;25.57;26.00;100394.19;5034232;28;20049;-85
2021/03/31 11:15:43;;;;;;;15.13;10.80;;;;;;;25.96;26.03;100389.88;5035149;28;20053;-85
2021/03/31 11:20:42;;;;;;;12.25;9.73;;;;;;;26.95;25.09;100394.00;5035302;28;20049;-86
2021/03/31 11:25:56;;;;;;;15.52;9.85;;;;;;;28.26;24.24;100385.81;5035018;28;20072;-86
2021/03/31 11:28:24;;;;;;;13.40;10.18;;;;;;;28.90;24.44;100388.81;5034842;28;20420;-85
2021/03/31 11:30:54;;;;;;;18.00;10.85;;;;;;;29.54;23.38;100380.81;5035081;28;20053;-85
2021/03/31 11:33:22;;;;;;;13.05;9.88;;;;;;;30.14;23.54;100383.91;5033714;28;20103;-86
2021/03/31 11:35:50;;;;;;;17.73;11.40;;;;;;;30.72;22.21;100389.13;5034619;28;20490;-85
2021/03/31 11:38:16;;;;;;;13.63;10.25;;;;;;;31.28;22.33;100379.75;5034162;28;20060;-85
2021/03/31 11:40:42;;;;;;;44.00;12.63;;;;;;;31.80;21.23;100367.38;5034709;28;20050;-86
2021/03/31 11:43:11;;;;;;;14.40;11.27;;;;;;;32.28;20.69;100365.34;5034754;28;20425;-86
2021/03/31 11:45:37;;;;;;;12.75;9.68;;;;;;;32.70;20.68;100363.00;5034397;28;20540;-86
2021/03/31 11:48:04;;;;;;;15.80;10.85;;;;;;;33.06;19.71;100362.53;5034574;28;20456;-85
2021/03/31 11:50:31;;;;;;;12.63;10.63;;;;;;;33.38;19.61;100351.56;5034732;28;20042;-86
2021/03/31 11:52:57;;;;;;;13.18;10.27;;;;;;;33.65;19.01;100354.03;5034520;28;20464;-86
2021/03/31 11:55:23;;;;;;;11.90;9.63;;;;;;;33.92;18.84;100345.53;5032986;28;20503;-87
2021/03/31 11:57:50;;;;;;;14.85;10.95;;;;;;;34.17;18.69;100336.44;5034239;28;20612;-86
2021/03/31 12:00:18;;;;;;;15.63;10.60;;;;;;;34.38;17.76;100337.81;5033618;28;20080;-87
2021/03/31 12:02:44;;;;;;;14.27;9.00;;;;;;;34.61;18.52;100344.47;5034449;28;20107;-86
2021/03/31 12:05:12;;;;;;;14.23;9.77;;;;;;;34.84;18.36;100334.63;5033043;28;20050;-86